sensor_id;sensor_type;location;lat;lon;timestamp;pressure;altitude;pressure_sealevel;temperature;humidity
48848;BME280;36611;51.638;5.784;2023-04-25T00:00:26;100957.78;;;22.28;37.23
48848;BME280;36611;51.638;5.784;2023-04-25T00:02:52;100964.28;;;22.27;37.56
48848;BME280;36611;51.638;5.784;2023-04-25T00:05:19;100968.72;;;22.28;37.30
48848;BME280;36611;51.638;5.784;2023-04-25T00:07:47;100967.88;;;22.27;37.28
48848;BME280;36611;51.638;5.784;2023-04-25T00:10:13;100972.31;;;22.28;37.41
48848;BME280;36611;51.638;5.784;2023-04-25T00:12:40;100976.94;;;22.28;37.55
48848;BME280;36611;51.638;5.784;2023-04-25T00:15:07;100968.72;;;22.28;37.26
48848;BME280;36611;51.638;5.784;2023-04-25T00:17:34;100976.94;;;22.28;37.33
48848;BME280;36611;51.638;5.784;2023-04-25T00:20:05;100976.75;;;22.29;37.42
48848;BME280;36611;51.638;5.784;2023-04-25T00:22:34;100985.13;;;22.28;37.58
48848;BME280;36611;51.638;5.784;2023-04-25T00:25:00;100976.94;;;22.28;37.13
48848;BME280;36611;51.638;5.784;2023-04-25T00:27:27;100986.84;;;22.29;37.31
48848;BME280;36611;51.638;5.784;2023-04-25T00:29:53;100984.09;;;22.29;37.54
48848;BME280;36611;51.638;5.784;2023-04-25T00:32:20;100982.41;;;22.28;37.37
48848;BME280;36611;51.638;5.784;2023-04-25T00:34:47;100985.13;;;22.28;37.57
48848;BME280;36611;51.638;5.784;2023-04-25T00:37:13;100989.56;;;22.29;37.27
48848;BME280;36611;51.638;5.784;2023-04-25T00:39:40;100987.88;;;22.28;37.49
48848;BME280;36611;51.638;5.784;2023-04-25T00:42:07;100993.34;;;22.28;37.27
48848;BME280;36611;51.638;5.784;2023-04-25T00:44:35;100983.25;;;22.28;37.27
48848;BME280;36611;51.638;5.784;2023-04-25T00:47:02;100978.81;;;22.27;37.34
48848;BME280;36611;51.638;5.784;2023-04-25T00:49:29;100984.28;;;22.27;37.40
48848;BME280;36611;51.638;5.784;2023-04-25T00:51:56;100979.66;;;22.28;37.25
48848;BME280;36611;51.638;5.784;2023-04-25T00:54:23;100989.75;;;22.27;37.50
48848;BME280;36611;51.638;5.784;2023-04-25T00:56:49;100982.41;;;22.28;37.46
48848;BME280;36611;51.638;5.784;2023-04-25T00:59:16;100990.59;;;22.28;37.31
48848;BME280;36611;51.638;5.784;2023-04-25T01:01:44;100989.75;;;22.27;37.18
48848;BME280;36611;51.638;5.784;2023-04-25T01:04:11;100984.28;;;22.27;37.28
48848;BME280;36611;51.638;5.784;2023-04-25T01:06:40;100979.66;;;22.28;37.33
48848;BME280;36611;51.638;5.784;2023-04-25T01:09:06;100978.63;;;22.29;37.19
48848;BME280;36611;51.638;5.784;2023-04-25T01:11:33;100985.13;;;22.28;37.23
48848;BME280;36611;51.638;5.784;2023-04-25T01:14:00;100984.09;;;22.29;37.39
48848;BME280;36611;51.638;5.784;2023-04-25T01:16:28;100980.50;;;22.28;37.39
48848;BME280;36611;51.638;5.784;2023-04-25T01:18:55;100986.84;;;22.29;37.32
48848;BME280;36611;51.638;5.784;2023-04-25T01:21:22;100992.31;;;22.29;37.26
48848;BME280;36611;51.638;5.784;2023-04-25T01:23:49;100991.47;;;22.28;37.30
48848;BME280;36611;51.638;5.784;2023-04-25T01:26:17;100981.38;;;22.29;37.41
48848;BME280;36611;51.638;5.784;2023-04-25T01:28:44;100988.72;;;22.28;37.39
48848;BME280;36611;51.638;5.784;2023-04-25T01:31:12;100995.03;;;22.29;37.18
48848;BME280;36611;51.638;5.784;2023-04-25T01:33:39;100993.34;;;22.28;37.60
48848;BME280;36611;51.638;5.784;2023-04-25T01:36:06;101002.41;;;22.28;37.19
48848;BME280;36611;51.638;5.784;2023-04-25T01:38:34;100996.94;;;22.28;37.38
48848;BME280;36611;51.638;5.784;2023-04-25T01:41:01;101000.53;;;22.29;37.42
48848;BME280;36611;51.638;5.784;2023-04-25T01:43:28;101006.00;;;22.29;37.11
48848;BME280;36611;51.638;5.784;2023-04-25T01:45:56;101014.19;;;22.29;37.33
48848;BME280;36611;51.638;5.784;2023-04-25T01:48:23;101013.34;;;22.28;37.17
48848;BME280;36611;51.638;5.784;2023-04-25T01:50:49;101014.38;;;22.27;37.45
48848;BME280;36611;51.638;5.784;2023-04-25T01:53:16;101017.97;;;22.28;37.24
48848;BME280;36611;51.638;5.784;2023-04-25T01:55:44;101014.19;;;22.29;37.37
48848;BME280;36611;51.638;5.784;2023-04-25T01:58:14;101017.13;;;22.27;37.24
48848;BME280;36611;51.638;5.784;2023-04-25T02:01:16;101014.56;;;22.26;37.18
48848;BME280;36611;51.638;5.784;2023-04-25T02:03:51;101015.41;;;22.26;37.59
48848;BME280;36611;51.638;5.784;2023-04-25T02:06:24;101020.03;;;22.26;37.46
48848;BME280;36611;51.638;5.784;2023-04-25T02:08:53;101021.72;;;22.27;37.47
48848;BME280;36611;51.638;5.784;2023-04-25T02:11:19;101021.72;;;22.27;37.31
48848;BME280;36611;51.638;5.784;2023-04-25T02:13:55;101016.44;;;22.25;37.45
48848;BME280;36611;51.638;5.784;2023-04-25T02:16:37;101023.63;;;22.26;37.43
48848;BME280;36611;51.638;5.784;2023-04-25T02:19:06;101028.25;;;22.26;37.33
48848;BME280;36611;51.638;5.784;2023-04-25T02:21:33;101023.63;;;22.26;37.55
48848;BME280;36611;51.638;5.784;2023-04-25T02:24:03;101021.72;;;22.27;37.47
48848;BME280;36611;51.638;5.784;2023-04-25T02:26:29;101023.63;;;22.26;37.07
48848;BME280;36611;51.638;5.784;2023-04-25T02:28:57;101024.47;;;22.27;37.50
48848;BME280;36611;51.638;5.784;2023-04-25T02:31:23;101028.25;;;22.26;37.29
48848;BME280;36611;51.638;5.784;2023-04-25T02:33:51;101032.69;;;22.27;37.49
48848;BME280;36611;51.638;5.784;2023-04-25T02:36:18;101031.81;;;22.26;37.57
48848;BME280;36611;51.638;5.784;2023-04-25T02:38:44;101035.41;;;22.27;37.31
48848;BME280;36611;51.638;5.784;2023-04-25T02:41:11;101029.94;;;22.27;37.14
48848;BME280;36611;51.638;5.784;2023-04-25T02:43:37;101036.28;;;22.27;37.42
48848;BME280;36611;51.638;5.784;2023-04-25T02:46:04;101032.69;;;22.27;37.28
48848;BME280;36611;51.638;5.784;2023-04-25T02:48:31;101030.97;;;22.26;37.13
48848;BME280;36611;51.638;5.784;2023-04-25T02:50:57;101039.00;;;22.27;37.17
48848;BME280;36611;51.638;5.784;2023-04-25T02:53:24;101036.28;;;22.27;37.22
48848;BME280;36611;51.638;5.784;2023-04-25T02:55:52;101034.56;;;22.26;37.31
48848;BME280;36611;51.638;5.784;2023-04-25T02:58:19;101035.41;;;22.27;37.22
48848;BME280;36611;51.638;5.784;2023-04-25T03:00:49;101035.41;;;22.27;37.38
48848;BME280;36611;51.638;5.784;2023-04-25T03:03:16;101029.28;;;22.25;37.04
48848;BME280;36611;51.638;5.784;2023-04-25T03:05:49;101032.84;;;22.25;37.17
48848;BME280;36611;51.638;5.784;2023-04-25T03:08:21;101032.84;;;22.25;37.38
48848;BME280;36611;51.638;5.784;2023-04-25T03:10:49;101042.94;;;22.25;37.05
48848;BME280;36611;51.638;5.784;2023-04-25T03:13:18;101039.19;;;22.26;37.22
48848;BME280;36611;51.638;5.784;2023-04-25T03:15:45;101047.41;;;22.26;37.53
48848;BME280;36611;51.638;5.784;2023-04-25T03:18:12;101048.25;;;22.26;37.45
48848;BME280;36611;51.638;5.784;2023-04-25T03:20:39;101046.53;;;22.25;37.20
48848;BME280;36611;51.638;5.784;2023-04-25T03:23:08;101048.44;;;22.25;37.21
48848;BME280;36611;51.638;5.784;2023-04-25T03:25:35;101044.66;;;22.26;37.22
48848;BME280;36611;51.638;5.784;2023-04-25T03:28:03;101044.66;;;22.26;37.22
48848;BME280;36611;51.638;5.784;2023-04-25T03:30:30;101048.44;;;22.25;37.10
48848;BME280;36611;51.638;5.784;2023-04-25T03:32:57;101045.69;;;22.25;37.16
48848;BME280;36611;51.638;5.784;2023-04-25T03:35:24;101049.28;;;22.25;37.39
48848;BME280;36611;51.638;5.784;2023-04-25T03:37:51;101043.81;;;22.25;37.45
48848;BME280;36611;51.638;5.784;2023-04-25T03:40:24;101043.81;;;22.25;37.39
48848;BME280;36611;51.638;5.784;2023-04-25T03:43:10;101052.19;;;22.24;37.35
48848;BME280;36611;51.638;5.784;2023-04-25T03:45:42;101051.16;;;22.25;37.13
48848;BME280;36611;51.638;5.784;2023-04-25T03:48:08;101048.44;;;22.25;37.07
48848;BME280;36611;51.638;5.784;2023-04-25T03:50:35;101056.63;;;22.25;37.25
48848;BME280;36611;51.638;5.784;2023-04-25T03:53:02;101064.84;;;22.25;37.22
48848;BME280;36611;51.638;5.784;2023-04-25T03:55:37;101050.31;;;22.24;37.53
48848;BME280;36611;51.638;5.784;2023-04-25T03:58:03;101057.66;;;22.24;37.10
48848;BME280;36611;51.638;5.784;2023-04-25T04:00:31;101060.41;;;22.24;37.19
48848;BME280;36611;51.638;5.784;2023-04-25T04:02:57;101062.09;;;22.25;37.23
48848;BME280;36611;51.638;5.784;2023-04-25T04:05:24;101048.59;;;22.23;37.33
48848;BME280;36611;51.638;5.784;2023-04-25T04:07:55;101061.44;;;22.23;37.23
48848;BME280;36611;51.638;5.784;2023-04-25T04:10:22;101061.25;;;22.24;37.05
48848;BME280;36611;51.638;5.784;2023-04-25T04:12:48;101060.41;;;22.24;37.17
48848;BME280;36611;51.638;5.784;2023-04-25T04:15:16;101065.03;;;22.23;37.52
48848;BME280;36611;51.638;5.784;2023-04-25T04:17:44;101067.75;;;22.23;37.44
48848;BME280;36611;51.638;5.784;2023-04-25T04:20:11;101074.09;;;22.24;37.30
48848;BME280;36611;51.638;5.784;2023-04-25T04:22:39;101074.09;;;22.24;37.46
48848;BME280;36611;51.638;5.784;2023-04-25T04:25:09;101075.97;;;22.23;37.21
48848;BME280;36611;51.638;5.784;2023-04-25T04:27:56;101076.13;;;22.22;37.51
48848;BME280;36611;51.638;5.784;2023-04-25T04:30:35;101072.56;;;22.21;37.40
48848;BME280;36611;51.638;5.784;2023-04-25T04:33:06;101074.25;;;22.22;37.05
48848;BME280;36611;51.638;5.784;2023-04-25T04:35:34;101087.94;;;22.22;37.39
48848;BME280;36611;51.638;5.784;2023-04-25T04:38:01;101080.59;;;22.23;37.35
48848;BME280;36611;51.638;5.784;2023-04-25T04:40:32;101084.34;;;22.22;37.12
48848;BME280;36611;51.638;5.784;2023-04-25T04:43:07;101089.81;;;22.22;37.32
48848;BME280;36611;51.638;5.784;2023-04-25T04:45:53;101093.59;;;22.20;37.09
48848;BME280;36611;51.638;5.784;2023-04-25T04:48:49;101101.78;;;22.20;37.28
48848;BME280;36611;51.638;5.784;2023-04-25T04:51:21;101100.94;;;22.20;37.55
48848;BME280;36611;51.638;5.784;2023-04-25T04:53:59;101103.84;;;22.18;37.09
48848;BME280;36611;51.638;5.784;2023-04-25T04:56:47;101108.28;;;22.19;37.19
48848;BME280;36611;51.638;5.784;2023-04-25T04:59:33;101112.91;;;22.19;37.61
48848;BME280;36611;51.638;5.784;2023-04-25T05:02:30;101112.06;;;22.18;37.19
48848;BME280;36611;51.638;5.784;2023-04-25T05:05:15;101113.94;;;22.18;37.37
48848;BME280;36611;51.638;5.784;2023-04-25T05:08:06;101120.28;;;22.18;37.24
48848;BME280;36611;51.638;5.784;2023-04-25T05:10:52;101120.28;;;22.18;37.32
48848;BME280;36611;51.638;5.784;2023-04-25T05:13:32;101122.16;;;22.18;37.19
48848;BME280;36611;51.638;5.784;2023-04-25T05:16:36;101129.50;;;22.17;37.24
48848;BME280;36611;51.638;5.784;2023-04-25T05:19:35;101144.03;;;22.18;37.52
48848;BME280;36611;51.638;5.784;2023-04-25T05:22:20;101142.34;;;22.17;37.18
48848;BME280;36611;51.638;5.784;2023-04-25T05:25:09;101147.81;;;22.17;37.22
48848;BME280;36611;51.638;5.784;2023-04-25T05:27:54;101146.94;;;22.16;37.38
48848;BME280;36611;51.638;5.784;2023-04-25T05:30:39;101154.13;;;22.17;37.43
48848;BME280;36611;51.638;5.784;2023-04-25T05:33:13;101165.06;;;22.17;37.55
48848;BME280;36611;51.638;5.784;2023-04-25T05:35:41;101158.56;;;22.18;37.01
48848;BME280;36611;51.638;5.784;2023-04-25T05:38:08;101162.16;;;22.19;37.44
48848;BME280;36611;51.638;5.784;2023-04-25T05:41:12;101164.91;;;22.19;37.40
48848;BME280;36611;51.638;5.784;2023-04-25T05:43:42;101169.34;;;22.20;37.56
48848;BME280;36611;51.638;5.784;2023-04-25T05:46:36;101164.03;;;22.18;37.63
48848;BME280;36611;51.638;5.784;2023-04-25T05:49:13;101173.97;;;22.19;37.47
48848;BME280;36611;51.638;5.784;2023-04-25T05:52:00;101179.44;;;22.19;37.36
48848;BME280;36611;51.638;5.784;2023-04-25T05:54:46;101184.91;;;22.19;37.41
48848;BME280;36611;51.638;5.784;2023-04-25T05:59:48;101181.13;;;22.20;37.33
48848;BME280;36611;51.638;5.784;2023-04-25T06:02:14;101186.59;;;22.20;37.52
48848;BME280;36611;51.638;5.784;2023-04-25T06:04:42;101182.84;;;22.22;37.28
48848;BME280;36611;51.638;5.784;2023-04-25T06:07:09;101180.09;;;22.22;37.21
48848;BME280;36611;51.638;5.784;2023-04-25T06:09:36;101180.09;;;22.22;37.11
48848;BME280;36611;51.638;5.784;2023-04-25T06:12:03;101188.13;;;22.23;37.20
48848;BME280;36611;51.638;5.784;2023-04-25T06:14:29;101190.03;;;22.23;37.48
48848;BME280;36611;51.638;5.784;2023-04-25T06:16:57;101189.00;;;22.24;37.33
48848;BME280;36611;51.638;5.784;2023-04-25T06:19:25;101186.25;;;22.24;37.05
48848;BME280;36611;51.638;5.784;2023-04-25T06:21:52;101194.28;;;22.25;37.50
48848;BME280;36611;51.638;5.784;2023-04-25T06:24:19;101189.84;;;22.24;37.37
48848;BME280;36611;51.638;5.784;2023-04-25T06:26:46;101189.84;;;22.24;37.22
48848;BME280;36611;51.638;5.784;2023-04-25T06:29:14;101198.06;;;22.24;37.16
48848;BME280;36611;51.638;5.784;2023-04-25T06:31:41;101197.03;;;22.25;37.29
48848;BME280;36611;51.638;5.784;2023-04-25T06:34:08;101197.03;;;22.25;37.02
48848;BME280;36611;51.638;5.784;2023-04-25T06:36:38;101196.16;;;22.25;37.21
48848;BME280;36611;51.638;5.784;2023-04-25T06:39:07;101206.09;;;22.26;37.19
48848;BME280;36611;51.638;5.784;2023-04-25T06:41:35;101204.38;;;22.25;37.32
48848;BME280;36611;51.638;5.784;2023-04-25T06:44:05;101208.81;;;22.26;37.31
48848;BME280;36611;51.638;5.784;2023-04-25T06:46:38;101212.59;;;22.25;37.42
48848;BME280;36611;51.638;5.784;2023-04-25T06:49:04;101214.28;;;22.26;37.47
48848;BME280;36611;51.638;5.784;2023-04-25T06:51:31;101216.16;;;22.25;37.01
48848;BME280;36611;51.638;5.784;2023-04-25T06:53:58;101225.06;;;22.27;37.18
48848;BME280;36611;51.638;5.784;2023-04-25T06:56:30;101222.50;;;22.26;36.98
48848;BME280;36611;51.638;5.784;2023-04-25T06:59:09;101219.75;;;22.26;37.50
48848;BME280;36611;51.638;5.784;2023-04-25T07:01:38;101228.81;;;22.26;37.33
48848;BME280;36611;51.638;5.784;2023-04-25T07:04:09;101227.13;;;22.25;37.06
48848;BME280;36611;51.638;5.784;2023-04-25T07:06:41;101231.72;;;22.25;37.42
48848;BME280;36611;51.638;5.784;2023-04-25T07:09:10;101231.72;;;22.25;37.07
48848;BME280;36611;51.638;5.784;2023-04-25T07:11:37;101231.72;;;22.25;37.08
48848;BME280;36611;51.638;5.784;2023-04-25T07:14:04;101237.22;;;22.25;37.40
48848;BME280;36611;51.638;5.784;2023-04-25T07:16:31;101242.69;;;22.25;37.10
48848;BME280;36611;51.638;5.784;2023-04-25T07:19:01;101245.41;;;22.25;37.16
48848;BME280;36611;51.638;5.784;2023-04-25T07:21:28;101253.63;;;22.25;37.16
48848;BME280;36611;51.638;5.784;2023-04-25T07:23:55;101246.44;;;22.24;37.44
48848;BME280;36611;51.638;5.784;2023-04-25T07:26:27;101247.31;;;22.24;37.21
48848;BME280;36611;51.638;5.784;2023-04-25T07:29:14;101256.53;;;22.23;37.39
48848;BME280;36611;51.638;5.784;2023-04-25T07:31:40;101258.91;;;22.26;37.33
48848;BME280;36611;51.638;5.784;2023-04-25T07:34:08;101258.06;;;22.26;37.64
48848;BME280;36611;51.638;5.784;2023-04-25T07:36:36;101257.22;;;22.25;37.54
48848;BME280;36611;51.638;5.784;2023-04-25T07:39:04;101257.03;;;22.27;37.47
48848;BME280;36611;51.638;5.784;2023-04-25T07:41:30;101255.34;;;22.26;37.87
48848;BME280;36611;51.638;5.784;2023-04-25T07:43:58;101267.97;;;22.27;37.67
48848;BME280;36611;51.638;5.784;2023-04-25T07:46:24;101264.41;;;22.26;37.58
48848;BME280;36611;51.638;5.784;2023-04-25T07:48:51;101264.41;;;22.26;37.86
48848;BME280;36611;51.638;5.784;2023-04-25T07:51:18;101271.75;;;22.26;37.51
48848;BME280;36611;51.638;5.784;2023-04-25T07:53:47;101273.63;;;22.25;37.60
48848;BME280;36611;51.638;5.784;2023-04-25T07:56:16;101279.09;;;22.25;37.90
48848;BME280;36611;51.638;5.784;2023-04-25T07:58:46;101285.59;;;22.24;37.71
48848;BME280;36611;51.638;5.784;2023-04-25T08:01:15;101295.53;;;22.25;37.92
48848;BME280;36611;51.638;5.784;2023-04-25T08:03:52;101294.66;;;22.25;37.99
48848;BME280;36611;51.638;5.784;2023-04-25T08:06:31;101293.97;;;22.23;38.27
48848;BME280;36611;51.638;5.784;2023-04-25T08:09:06;101298.59;;;22.22;37.94
48848;BME280;36611;51.638;5.784;2023-04-25T08:11:38;101304.06;;;22.22;37.88
48848;BME280;36611;51.638;5.784;2023-04-25T08:14:06;101301.34;;;22.22;37.94
48848;BME280;36611;51.638;5.784;2023-04-25T08:16:34;101304.94;;;22.23;37.72
48848;BME280;36611;51.638;5.784;2023-04-25T08:19:01;101311.44;;;22.22;37.85
48848;BME280;36611;51.638;5.784;2023-04-25T08:21:28;101315.03;;;22.22;37.70
48848;BME280;36611;51.638;5.784;2023-04-25T08:23:58;101316.03;;;22.21;38.05
48848;BME280;36611;51.638;5.784;2023-04-25T08:26:28;101320.66;;;22.20;37.78
48848;BME280;36611;51.638;5.784;2023-04-25T08:28:56;101320.50;;;22.22;37.77
48848;BME280;36611;51.638;5.784;2023-04-25T08:31:23;101319.63;;;22.22;37.75
48848;BME280;36611;51.638;5.784;2023-04-25T08:33:56;101320.66;;;22.20;37.71
48848;BME280;36611;51.638;5.784;2023-04-25T08:36:32;101322.38;;;22.22;37.84
48848;BME280;36611;51.638;5.784;2023-04-25T08:39:17;101326.13;;;22.20;37.78
48848;BME280;36611;51.638;5.784;2023-04-25T08:42:06;101335.38;;;22.19;37.59
48848;BME280;36611;51.638;5.784;2023-04-25T08:44:37;101329.91;;;22.19;37.56
48848;BME280;36611;51.638;5.784;2023-04-25T08:47:05;101335.38;;;22.19;37.54
48848;BME280;36611;51.638;5.784;2023-04-25T08:49:39;101340.00;;;22.19;37.81
48848;BME280;36611;51.638;5.784;2023-04-25T08:52:12;101339.13;;;22.18;37.53
48848;BME280;36611;51.638;5.784;2023-04-25T08:54:48;101340.00;;;22.19;37.93
48848;BME280;36611;51.638;5.784;2023-04-25T08:57:17;101340.00;;;22.19;37.79
48848;BME280;36611;51.638;5.784;2023-04-25T08:59:46;101337.25;;;22.19;37.74
48848;BME280;36611;51.638;5.784;2023-04-25T09:02:13;101350.06;;;22.18;37.54
48848;BME280;36611;51.638;5.784;2023-04-25T09:04:46;101350.06;;;22.18;37.85
48848;BME280;36611;51.638;5.784;2023-04-25T09:07:12;101359.13;;;22.19;37.77
48848;BME280;36611;51.638;5.784;2023-04-25T09:09:42;101365.47;;;22.19;37.74
48848;BME280;36611;51.638;5.784;2023-04-25T09:12:08;101375.56;;;22.19;37.59
48848;BME280;36611;51.638;5.784;2023-04-25T09:14:35;101372.81;;;22.19;37.65
48848;BME280;36611;51.638;5.784;2023-04-25T09:17:05;101388.38;;;22.18;38.14
48848;BME280;36611;51.638;5.784;2023-04-25T09:19:39;101385.81;;;22.17;37.56
48848;BME280;36611;51.638;5.784;2023-04-25T09:22:22;101394.88;;;22.17;37.54
48848;BME280;36611;51.638;5.784;2023-04-25T09:24:49;101394.88;;;22.17;37.67
48848;BME280;36611;51.638;5.784;2023-04-25T09:27:20;101393.16;;;22.16;37.72
48848;BME280;36611;51.638;5.784;2023-04-25T09:29:58;101400.34;;;22.17;37.93
48848;BME280;36611;51.638;5.784;2023-04-25T09:32:42;101405.13;;;22.15;37.67
48848;BME280;36611;51.638;5.784;2023-04-25T09:35:10;101405.13;;;22.15;37.66
48848;BME280;36611;51.638;5.784;2023-04-25T09:37:40;101407.03;;;22.15;37.57
48848;BME280;36611;51.638;5.784;2023-04-25T09:40:43;101414.38;;;22.14;37.66
48848;BME280;36611;51.638;5.784;2023-04-25T09:43:22;101418.13;;;22.13;37.86
48848;BME280;36611;51.638;5.784;2023-04-25T09:45:51;101421.72;;;22.14;37.49
48848;BME280;36611;51.638;5.784;2023-04-25T09:48:20;101422.56;;;22.14;37.67
48848;BME280;36611;51.638;5.784;2023-04-25T09:51:11;101431.81;;;22.13;37.36
48848;BME280;36611;51.638;5.784;2023-04-25T09:53:46;101431.81;;;22.13;37.71
48848;BME280;36611;51.638;5.784;2023-04-25T09:56:27;101429.06;;;22.13;37.52
48848;BME280;36611;51.638;5.784;2023-04-25T09:58:59;101435.56;;;22.12;37.40
48848;BME280;36611;51.638;5.784;2023-04-25T10:01:27;101430.94;;;22.13;37.38
48848;BME280;36611;51.638;5.784;2023-04-25T10:04:11;101441.03;;;22.12;37.70
48848;BME280;36611;51.638;5.784;2023-04-25T10:06:59;101430.28;;;22.11;37.61
48848;BME280;36611;51.638;5.784;2023-04-25T10:09:28;101441.03;;;22.12;37.70
48848;BME280;36611;51.638;5.784;2023-04-25T10:12:00;101432.84;;;22.12;37.61
48848;BME280;36611;51.638;5.784;2023-04-25T10:14:26;101437.28;;;22.13;37.68
48848;BME280;36611;51.638;5.784;2023-04-25T10:16:54;101428.22;;;22.13;37.79
48848;BME280;36611;51.638;5.784;2023-04-25T10:19:23;101438.13;;;22.14;37.87
48848;BME280;36611;51.638;5.784;2023-04-25T10:22:13;101430.09;;;22.12;37.40
48848;BME280;36611;51.638;5.784;2023-04-25T10:24:41;101431.81;;;22.13;37.29
48848;BME280;36611;51.638;5.784;2023-04-25T10:27:08;101429.06;;;22.13;37.45
48848;BME280;36611;51.638;5.784;2023-04-25T10:29:35;101428.03;;;22.14;37.33
48848;BME280;36611;51.638;5.784;2023-04-25T10:32:02;101428.91;;;22.15;37.43
48848;BME280;36611;51.638;5.784;2023-04-25T10:34:42;101427.88;;;22.16;37.44
48848;BME280;36611;51.638;5.784;2023-04-25T10:37:10;101422.56;;;22.14;37.76
48848;BME280;36611;51.638;5.784;2023-04-25T10:39:41;101446.16;;;22.15;37.39
48848;BME280;36611;51.638;5.784;2023-04-25T10:42:08;101441.72;;;22.14;37.37
48848;BME280;36611;51.638;5.784;2023-04-25T10:44:36;101444.47;;;22.14;37.67
48848;BME280;36611;51.638;5.784;2023-04-25T10:47:06;101447.19;;;22.14;37.30
48848;BME280;36611;51.638;5.784;2023-04-25T10:49:36;101450.97;;;22.13;37.36
48848;BME280;36611;51.638;5.784;2023-04-25T10:52:16;101456.25;;;22.15;37.58
48848;BME280;36611;51.638;5.784;2023-04-25T10:55:03;101455.41;;;22.14;37.79
48848;BME280;36611;51.638;5.784;2023-04-25T10:57:39;101460.03;;;22.14;37.40
48848;BME280;36611;51.638;5.784;2023-04-25T11:00:15;101456.44;;;22.13;37.74
48848;BME280;36611;51.638;5.784;2023-04-25T11:02:47;101457.47;;;22.12;37.27
48848;BME280;36611;51.638;5.784;2023-04-25T11:05:31;101455.56;;;22.13;37.55
48848;BME280;36611;51.638;5.784;2023-04-25T11:08:12;101440.19;;;22.12;37.31
48848;BME280;36611;51.638;5.784;2023-04-25T11:10:40;101442.06;;;22.11;37.63
48848;BME280;36611;51.638;5.784;2023-04-25T11:13:06;101441.91;;;22.13;37.55
48848;BME280;36611;51.638;5.784;2023-04-25T11:15:33;101441.03;;;22.12;37.59
48848;BME280;36611;51.638;5.784;2023-04-25T11:17:59;101440.03;;;22.13;37.33
48848;BME280;36611;51.638;5.784;2023-04-25T11:20:26;101445.50;;;22.13;37.54
48848;BME280;36611;51.638;5.784;2023-04-25T11:22:57;101449.09;;;22.14;37.31
48848;BME280;36611;51.638;5.784;2023-04-25T11:25:25;101448.22;;;22.13;37.49
48848;BME280;36611;51.638;5.784;2023-04-25T11:27:52;101454.56;;;22.14;37.25
48848;BME280;36611;51.638;5.784;2023-04-25T11:30:20;101460.88;;;22.14;37.67
48848;BME280;36611;51.638;5.784;2023-04-25T11:32:48;101461.91;;;22.13;37.40
48848;BME280;36611;51.638;5.784;2023-04-25T11:35:14;101470.09;;;22.13;37.44
48848;BME280;36611;51.638;5.784;2023-04-25T11:37:43;101475.59;;;22.13;37.40
48848;BME280;36611;51.638;5.784;2023-04-25T11:40:10;101481.91;;;22.14;37.37
48848;BME280;36611;51.638;5.784;2023-04-25T11:42:45;101472.84;;;22.13;37.09
48848;BME280;36611;51.638;5.784;2023-04-25T11:45:13;101475.59;;;22.13;37.25
48848;BME280;36611;51.638;5.784;2023-04-25T11:47:40;101480.19;;;22.13;37.42
48848;BME280;36611;51.638;5.784;2023-04-25T11:50:08;101478.31;;;22.13;37.42
48848;BME280;36611;51.638;5.784;2023-04-25T11:52:42;101481.06;;;22.13;37.49
48848;BME280;36611;51.638;5.784;2023-04-25T11:55:09;101485.66;;;22.13;37.39
48848;BME280;36611;51.638;5.784;2023-04-25T11:57:41;101487.38;;;22.14;37.23
48848;BME280;36611;51.638;5.784;2023-04-25T12:00:14;101487.38;;;22.14;37.13
48848;BME280;36611;51.638;5.784;2023-04-25T12:02:47;101485.66;;;22.13;37.45
48848;BME280;36611;51.638;5.784;2023-04-25T12:05:15;101481.06;;;22.13;37.39
48848;BME280;36611;51.638;5.784;2023-04-25T12:07:57;101474.72;;;22.13;37.17
48848;BME280;36611;51.638;5.784;2023-04-25T12:10:24;101477.47;;;22.13;37.43
48848;BME280;36611;51.638;5.784;2023-04-25T12:12:52;101482.94;;;22.13;37.39
48848;BME280;36611;51.638;5.784;2023-04-25T12:15:24;101483.78;;;22.13;37.08
48848;BME280;36611;51.638;5.784;2023-04-25T12:17:53;101481.91;;;22.14;37.08
48848;BME280;36611;51.638;5.784;2023-04-25T12:20:31;101483.63;;;22.15;37.07
48848;BME280;36611;51.638;5.784;2023-04-25T12:22:57;101481.91;;;22.14;37.32
48848;BME280;36611;51.638;5.784;2023-04-25T12:25:37;101485.34;;;22.16;37.12
48848;BME280;36611;51.638;5.784;2023-04-25T12:28:19;101486.34;;;22.15;37.46
48848;BME280;36611;51.638;5.784;2023-04-25T12:33:19;101476.44;;;22.14;37.13
48848;BME280;36611;51.638;5.784;2023-04-25T12:35:46;101483.63;;;22.15;37.25
48848;BME280;36611;51.638;5.784;2023-04-25T12:38:27;101480.72;;;22.16;37.51
48848;BME280;36611;51.638;5.784;2023-04-25T12:40:53;101490.97;;;22.14;37.32
48848;BME280;36611;51.638;5.784;2023-04-25T12:43:20;101483.63;;;22.15;37.06
48848;BME280;36611;51.638;5.784;2023-04-25T12:45:52;101493.53;;;22.16;37.05
48848;BME280;36611;51.638;5.784;2023-04-25T12:48:20;101491.66;;;22.16;37.28
48848;BME280;36611;51.638;5.784;2023-04-25T12:50:47;101490.63;;;22.17;37.44
48848;BME280;36611;51.638;5.784;2023-04-25T12:53:19;101494.22;;;22.18;37.44
48848;BME280;36611;51.638;5.784;2023-04-25T12:55:47;101488.94;;;22.16;37.29
48848;BME280;36611;51.638;5.784;2023-04-25T12:58:17;101479.69;;;22.17;37.42
48848;BME280;36611;51.638;5.784;2023-04-25T13:00:45;101493.38;;;22.17;37.05
48848;BME280;36611;51.638;5.784;2023-04-25T13:03:11;101497.81;;;22.18;37.19
48848;BME280;36611;51.638;5.784;2023-04-25T13:05:39;101506.19;;;22.17;36.98
48848;BME280;36611;51.638;5.784;2023-04-25T13:08:06;101516.13;;;22.18;37.04
48848;BME280;36611;51.638;5.784;2023-04-25T13:10:32;101525.34;;;22.17;37.05
48848;BME280;36611;51.638;5.784;2023-04-25T13:13:00;101527.22;;;22.16;37.26
48848;BME280;36611;51.638;5.784;2023-04-25T13:15:27;101530.81;;;22.17;37.26